Time;durP1;ratioP1;P1;durP2;ratioP2;P2;SDS_P1;SDS_P2;PMS_P1;PMS_P2;Temp;Humidity;BMP_temperature;BMP_pressure;BME280_temperature;BME280_humidity;BME280_pressure;Samples;Min_cycle;Max_cycle;Signal;HPM_P1;HPM_P2
2021/12/30 00:01:58;;;;;;;20.23;3.97;;;9.40;99.90;;;;;;5097915;28;20042;-72
2021/12/30 00:04:24;;;;;;;22.85;4.53;;;9.40;99.90;;;;;;5150441;27;20035;-72
2021/12/30 00:06:51;;;;;;;20.75;3.65;;;9.30;99.90;;;;;;5098723;28;20058;-72
2021/12/30 00:09:19;;;;;;;19.13;3.53;;;9.30;99.90;;;;;;5079283;28;20036;-72
2021/12/30 00:11:46;;;;;;;19.35;3.25;;;9.30;99.90;;;;;;5092085;28;20543;-72
2021/12/30 00:14:11;;;;;;;28.63;4.78;;;9.30;99.90;;;;;;5095876;28;20114;-72
2021/12/30 00:16:38;;;;;;;26.83;4.60;;;9.40;99.90;;;;;;5147941;27;20127;-72
2021/12/30 00:19:03;;;;;;;17.77;4.30;;;9.50;99.90;;;;;;5115521;28;20032;-72
2021/12/30 00:21:29;;;;;;;22.05;3.63;;;9.50;99.90;;;;;;5102134;28;20044;-72
2021/12/30 00:23:55;;;;;;;19.90;3.22;;;9.50;99.90;;;;;;5129443;27;20083;-72
2021/12/30 00:26:20;;;;;;;19.30;3.60;;;9.50;99.90;;;;;;5111956;27;20040;-72
2021/12/30 00:28:47;;;;;;;21.42;3.67;;;9.40;99.90;;;;;;5094940;28;20119;-72
2021/12/30 00:31:12;;;;;;;30.20;4.00;;;9.30;99.90;;;;;;5094977;28;20043;-72
2021/12/30 00:33:38;;;;;;;26.02;3.38;;;9.40;99.90;;;;;;5094869;28;20032;-72
2021/12/30 00:36:09;;;;;;;20.13;4.00;;;9.40;99.90;;;;;;5103980;28;20035;-72
2021/12/30 00:38:36;;;;;;;26.40;4.82;;;9.30;99.90;;;;;;5112876;28;20541;-72
2021/12/30 00:41:02;;;;;;;28.65;4.60;;;9.10;99.90;;;;;;5122329;27;20035;-72
2021/12/30 00:43:28;;;;;;;26.77;4.20;;;9.10;99.90;;;;;;5094508;28;20051;-72
2021/12/30 00:45:54;;;;;;;24.90;4.55;;;9.20;99.90;;;;;;5096761;28;20454;-72
2021/12/30 00:48:20;;;;;;;26.95;4.13;;;9.20;99.90;;;;;;5135106;27;20031;-72
2021/12/30 00:50:47;;;;;;;24.77;4.38;;;9.20;99.90;;;;;;5121673;27;20086;-72
2021/12/30 00:53:13;;;;;;;22.83;4.43;;;9.20;99.90;;;;;;5094468;28;20036;-72
2021/12/30 00:55:40;;;;;;;20.60;4.85;;;9.20;99.90;;;;;;5095208;28;20438;-72
2021/12/30 00:58:07;;;;;;;25.35;5.63;;;9.20;99.90;;;;;;5077407;28;20484;-72
2021/12/30 01:00:35;;;;;;;28.73;5.15;;;9.20;99.90;;;;;;5114955;27;20115;-72
2021/12/30 01:03:01;;;;;;;30.10;4.78;;;9.30;99.90;;;;;;5108382;27;20400;-72
2021/12/30 01:05:27;;;;;;;24.13;4.03;;;9.40;99.90;;;;;;5109869;28;20032;-72
2021/12/30 01:07:52;;;;;;;22.42;4.63;;;9.40;99.90;;;;;;5148969;27;20126;-72
2021/12/30 01:10:23;;;;;;;26.20;6.03;;;9.30;99.90;;;;;;5146669;27;20036;-72
2021/12/30 01:12:49;;;;;;;23.08;4.50;;;9.40;99.90;;;;;;5111478;28;20484;-72
2021/12/30 01:15:18;;;;;;;21.83;3.92;;;9.40;99.90;;;;;;5097455;28;20043;-72
2021/12/30 01:20:12;;;;;;;22.98;4.80;;;9.20;99.90;;;;;;5113257;28;20047;-72
2021/12/30 01:22:38;;;;;;;28.55;4.78;;;9.20;99.90;;;;;;5122407;27;20097;-72
2021/12/30 01:25:07;;;;;;;26.83;4.30;;;9.20;99.90;;;;;;5093824;28;20122;-72
2021/12/30 01:27:36;;;;;;;27.35;5.07;;;9.10;99.90;;;;;;5076909;28;20036;-71
2021/12/30 01:30:04;;;;;;;27.48;4.80;;;9.00;99.90;;;;;;5087875;28;20036;-72
2021/12/30 01:32:29;;;;;;;26.88;4.72;;;8.90;99.90;;;;;;5110637;28;20499;-72
2021/12/30 01:34:55;;;;;;;27.48;5.18;;;8.90;99.90;;;;;;5148465;27;20040;-72
2021/12/30 01:37:22;;;;;;;29.95;4.68;;;8.80;99.90;;;;;;5125957;27;20476;-72
2021/12/30 01:39:48;;;;;;;20.75;4.03;;;8.80;99.90;;;;;;5085526;28;20031;-71
2021/12/30 01:42:14;;;;;;;24.27;4.72;;;8.90;99.90;;;;;;5147014;27;20051;-72
2021/12/30 01:44:40;;;;;;;23.02;4.82;;;8.90;99.90;;;;;;5114169;28;20066;-72
2021/12/30 01:47:07;;;;;;;26.20;5.78;;;9.00;99.90;;;;;;5112346;28;20426;-72
2021/12/30 01:49:33;;;;;;;24.13;3.53;;;8.90;99.90;;;;;;5095358;28;20392;-72
2021/12/30 01:51:59;;;;;;;30.45;4.47;;;8.90;99.90;;;;;;5092398;28;20032;-72
2021/12/30 01:54:27;;;;;;;23.70;4.32;;;8.80;99.90;;;;;;5093477;28;20040;-72
2021/12/30 01:56:56;;;;;;;26.25;4.47;;;8.70;99.90;;;;;;5107257;28;20488;-72
2021/12/30 01:59:23;;;;;;;22.92;4.95;;;8.60;99.90;;;;;;5110676;28;20492;-72
2021/12/30 02:01:56;;;;;;;33.10;5.88;;;8.60;99.90;;;;;;5075716;28;20093;-72
2021/12/30 02:04:22;;;;;;;22.33;5.07;;;8.50;99.90;;;;;;5094489;28;20040;-72
2021/12/30 02:06:48;;;;;;;26.15;4.78;;;8.60;99.90;;;;;;5113606;28;20081;-72
2021/12/30 02:09:15;;;;;;;21.42;3.97;;;8.70;99.90;;;;;;5140243;27;20072;-72
2021/12/30 02:11:41;;;;;;;20.70;4.15;;;8.70;99.90;;;;;;5092929;28;20036;-72
2021/12/30 02:14:07;;;;;;;24.20;4.20;;;8.80;99.90;;;;;;5096371;28;20079;-71
2021/12/30 02:16:32;;;;;;;33.63;4.95;;;8.80;99.90;;;;;;5075885;28;20067;-72
2021/12/30 02:18:58;;;;;;;21.00;4.80;;;8.70;99.90;;;;;;5076268;28;20118;-72
2021/12/30 02:21:24;;;;;;;28.55;4.50;;;8.60;99.90;;;;;;5093017;28;20052;-72
2021/12/30 02:23:49;;;;;;;21.83;4.07;;;8.60;99.90;;;;;;5092789;28;20556;-72
2021/12/30 02:26:18;;;;;;;30.27;5.13;;;8.70;99.90;;;;;;5092677;28;20036;-72
2021/12/30 02:28:43;;;;;;;24.27;4.55;;;8.70;99.90;;;;;;5092447;28;20051;-72
2021/12/30 02:31:11;;;;;;;25.08;5.53;;;8.70;99.90;;;;;;5114630;27;20036;-72
2021/12/30 02:33:38;;;;;;;26.52;5.03;;;8.80;99.90;;;;;;5109010;28;20047;-72
2021/12/30 02:36:04;;;;;;;26.90;4.80;;;8.90;99.90;;;;;;5092900;28;20035;-72
2021/12/30 02:38:30;;;;;;;24.80;4.93;;;8.80;99.90;;;;;;5092652;28;20048;-72
2021/12/30 02:40:59;;;;;;;26.92;5.57;;;8.70;99.90;;;;;;5101629;28;20052;-72
2021/12/30 02:43:29;;;;;;;25.15;5.57;;;8.70;99.90;;;;;;5105147;28;20052;-72
2021/12/30 02:45:56;;;;;;;30.88;5.60;;;8.70;99.90;;;;;;5075027;28;20137;-72
2021/12/30 02:48:24;;;;;;;26.00;4.88;;;8.70;99.90;;;;;;5097633;28;20040;-72
2021/12/30 02:50:52;;;;;;;27.92;4.95;;;8.90;99.90;;;;;;5084666;28;20040;-72
2021/12/30 02:53:20;;;;;;;20.63;4.05;;;8.90;99.90;;;;;;5109454;28;20041;-72
2021/12/30 02:55:46;;;;;;;25.55;4.47;;;9.00;99.90;;;;;;5095751;28;20040;-72
2021/12/30 02:58:12;;;;;;;23.27;4.80;;;9.00;99.90;;;;;;5079056;28;20510;-72
2021/12/30 03:00:39;;;;;;;22.10;4.57;;;9.00;99.90;;;;;;5107388;28;20114;-72
2021/12/30 03:03:05;;;;;;;25.00;4.97;;;9.00;99.90;;;;;;5080665;28;20461;-72
2021/12/30 03:05:31;;;;;;;23.60;5.10;;;9.10;99.90;;;;;;5091654;28;20071;-72
2021/12/30 03:07:56;;;;;;;21.20;4.25;;;9.20;99.90;;;;;;5092286;28;20040;-72
2021/12/30 03:10:25;;;;;;;26.77;5.32;;;9.20;99.90;;;;;;5123495;27;20403;-72
2021/12/30 03:13:04;;;;;;;23.95;4.10;;;9.20;99.90;;;;;;5094581;28;20031;-72
2021/12/30 03:15:31;;;;;;;29.60;5.25;;;9.20;99.90;;;;;;5112423;28;20051;-73
2021/12/30 03:17:57;;;;;;;25.67;5.45;;;9.10;99.90;;;;;;5094365;28;20061;-72
2021/12/30 03:20:23;;;;;;;21.73;5.72;;;9.00;99.90;;;;;;5114000;28;20036;-72
2021/12/30 03:22:48;;;;;;;29.55;6.63;;;9.10;99.90;;;;;;5135070;27;20055;-72
2021/12/30 03:25:15;;;;;;;28.42;6.78;;;9.10;99.90;;;;;;5093388;28;20085;-72
2021/12/30 03:27:41;;;;;;;31.35;7.50;;;9.10;99.90;;;;;;5094205;28;20105;-72
2021/12/30 03:30:11;;;;;;;23.42;6.55;;;9.10;99.90;;;;;;5111335;28;20036;-72
2021/12/30 03:32:36;;;;;;;33.03;7.82;;;9.00;99.90;;;;;;5126057;27;20464;-72
2021/12/30 03:35:03;;;;;;;31.85;8.23;;;9.00;99.90;;;;;;5091871;28;20074;-72
2021/12/30 03:37:29;;;;;;;35.08;8.90;;;9.10;99.90;;;;;;5096821;28;20024;-72
2021/12/30 03:39:54;;;;;;;29.58;8.80;;;9.20;99.90;;;;;;5111154;28;20448;-72
2021/12/30 03:42:20;;;;;;;28.20;7.55;;;9.30;99.90;;;;;;5144791;27;20078;-72
2021/12/30 03:44:46;;;;;;;32.35;8.70;;;9.30;99.90;;;;;;5095132;28;20062;-72
2021/12/30 03:47:16;;;;;;;28.83;8.18;;;9.30;99.90;;;;;;5111043;28;20122;-72
2021/12/30 03:49:44;;;;;;;36.58;9.57;;;9.40;99.90;;;;;;5098990;28;20070;-72
2021/12/30 03:52:14;;;;;;;42.10;10.32;;;9.30;99.90;;;;;;5093377;28;20071;-72
2021/12/30 03:54:40;;;;;;;39.17;10.68;;;9.30;99.90;;;;;;5091721;28;20048;-72
2021/12/30 03:57:06;;;;;;;34.10;8.82;;;9.30;99.90;;;;;;5091442;28;20032;-73
2021/12/30 03:59:31;;;;;;;34.40;9.70;;;9.40;99.90;;;;;;5092004;28;20111;-72
2021/12/30 04:01:57;;;;;;;31.05;8.50;;;9.50;99.90;;;;;;5101214;28;20044;-72
2021/12/30 04:04:22;;;;;;;27.83;7.20;;;9.50;99.90;;;;;;5126673;27;20040;-72
2021/12/30 04:06:48;;;;;;;22.17;7.28;;;9.70;99.90;;;;;;5108473;28;20494;-72
2021/12/30 04:09:14;;;;;;;29.95;7.45;;;9.80;99.90;;;;;;5091435;28;20048;-72
2021/12/30 04:11:39;;;;;;;29.92;7.50;;;9.80;99.90;;;;;;5091309;28;20048;-72
2021/12/30 04:14:05;;;;;;;25.70;7.68;;;9.80;99.90;;;;;;5106189;28;20031;-72
2021/12/30 04:16:32;;;;;;;32.10;7.28;;;9.80;99.90;;;;;;5149255;27;20402;-72
2021/12/30 04:18:58;;;;;;;30.83;8.30;;;9.80;99.90;;;;;;5114423;28;20035;-72
2021/12/30 04:21:24;;;;;;;25.52;7.13;;;9.80;99.90;;;;;;5113205;27;20119;-72
2021/12/30 04:23:50;;;;;;;30.77;7.90;;;9.80;99.90;;;;;;5111996;27;20066;-72
2021/12/30 04:26:15;;;;;;;27.77;7.30;;;9.80;99.90;;;;;;5095299;28;20499;-72
2021/12/30 04:28:41;;;;;;;33.80;8.32;;;9.80;99.90;;;;;;5078135;28;20472;-72
2021/12/30 04:31:07;;;;;;;28.17;6.93;;;9.70;99.90;;;;;;5124085;27;20756;-72
2021/12/30 04:33:33;;;;;;;29.08;8.07;;;9.80;99.90;;;;;;5095219;28;20063;-72
2021/12/30 04:35:59;;;;;;;27.23;7.18;;;9.80;99.90;;;;;;5094511;28;20477;-72
2021/12/30 04:38:27;;;;;;;32.17;7.20;;;9.70;99.90;;;;;;5092679;28;20065;-73
2021/12/30 04:40:54;;;;;;;30.48;7.72;;;9.80;99.90;;;;;;5100856;28;20055;-72
2021/12/30 04:43:20;;;;;;;19.83;6.28;;;9.90;99.90;;;;;;5077691;28;20097;-73
2021/12/30 04:45:49;;;;;;;26.90;8.32;;;10.00;99.90;;;;;;5106473;28;20083;-73
2021/12/30 04:48:15;;;;;;;27.17;6.90;;;10.10;99.90;;;;;;5149408;27;20050;-72
2021/12/30 04:50:44;;;;;;;33.03;8.00;;;10.20;99.90;;;;;;5114279;28;20048;-73
2021/12/30 04:53:10;;;;;;;26.63;7.50;;;10.30;99.90;;;;;;5115143;28;20466;-73
2021/12/30 04:55:36;;;;;;;26.17;7.38;;;10.30;99.90;;;;;;5086877;28;20079;-73
2021/12/30 04:58:02;;;;;;;25.83;8.07;;;10.40;99.90;;;;;;5094667;28;20047;-73
2021/12/30 05:00:27;;;;;;;23.92;6.40;;;10.40;99.90;;;;;;5083275;28;20036;-73
2021/12/30 05:03:08;;;;;;;21.00;6.05;;;10.40;99.90;;;;;;5077448;28;20043;-73
2021/12/30 05:05:45;;;;;;;26.40;7.40;;;10.50;99.90;;;;;;5147539;27;20480;-73
2021/12/30 05:08:13;;;;;;;23.90;6.38;;;10.60;99.90;;;;;;5097424;28;20040;-73
2021/12/30 05:10:38;;;;;;;30.83;8.43;;;10.60;99.90;;;;;;5101920;28;20059;-73
2021/12/30 05:13:05;;;;;;;26.00;6.97;;;10.70;99.90;;;;;;5095214;28;20035;-73
2021/12/30 05:15:32;;;;;;;20.63;5.20;;;10.60;99.90;;;;;;5114136;27;20047;-72
2021/12/30 05:17:58;;;;;;;25.40;6.95;;;10.70;99.90;;;;;;5112471;28;20039;-72
2021/12/30 05:20:23;;;;;;;20.58;6.40;;;10.70;99.90;;;;;;5112085;28;20031;-73
2021/12/30 05:22:49;;;;;;;22.23;6.78;;;10.70;99.90;;;;;;5113322;28;20027;-73
2021/12/30 05:25:18;;;;;;;21.27;6.15;;;10.70;99.90;;;;;;5112984;28;20043;-72
2021/12/30 05:27:44;;;;;;;23.10;6.18;;;10.80;99.90;;;;;;5093182;28;20420;-72
2021/12/30 05:30:11;;;;;;;20.40;5.47;;;10.80;99.90;;;;;;5094138;28;20066;-72
2021/12/30 05:32:38;;;;;;;22.25;6.22;;;10.80;99.90;;;;;;5097044;28;20047;-73
2021/12/30 05:35:05;;;;;;;20.25;7.00;;;10.80;99.90;;;;;;5113100;28;20071;-72
2021/12/30 05:37:31;;;;;;;19.50;5.88;;;10.80;99.90;;;;;;5102622;28;20039;-72
2021/12/30 05:39:56;;;;;;;18.05;6.38;;;10.80;99.90;;;;;;5111628;28;20164;-72
2021/12/30 05:42:25;;;;;;;12.77;4.57;;;10.80;99.90;;;;;;5123791;27;20487;-72
2021/12/30 05:44:55;;;;;;;15.63;5.60;;;10.90;99.90;;;;;;5094025;28;20047;-72
2021/12/30 05:47:21;;;;;;;12.70;5.00;;;10.90;99.90;;;;;;5092403;28;20040;-72
2021/12/30 05:49:48;;;;;;;13.38;5.68;;;10.90;99.90;;;;;;5094661;28;20027;-72
2021/12/30 05:52:14;;;;;;;9.45;4.63;;;10.90;99.90;;;;;;5092948;28;20043;-72
2021/12/30 05:54:40;;;;;;;13.75;5.57;;;11.00;99.90;;;;;;5083259;28;20044;-72
2021/12/30 05:57:06;;;;;;;13.05;5.70;;;11.00;99.90;;;;;;5092917;28;20450;-72
2021/12/30 05:59:32;;;;;;;13.73;6.30;;;11.00;99.90;;;;;;5077600;28;20032;-71
2021/12/30 06:01:57;;;;;;;9.68;5.05;;;11.00;99.90;;;;;;5130092;27;20143;-72
2021/12/30 06:04:23;;;;;;;11.35;5.00;;;11.00;99.90;;;;;;5093635;28;20039;-72
2021/12/30 06:06:48;;;;;;;13.23;5.82;;;11.10;99.90;;;;;;5102257;28;20036;-72
2021/12/30 06:09:14;;;;;;;11.48;4.78;;;11.10;99.90;;;;;;5109180;28;20549;-72
2021/12/30 06:11:39;;;;;;;9.23;4.80;;;11.00;99.90;;;;;;5134597;27;20562;-72
2021/12/30 06:14:05;;;;;;;10.23;5.65;;;11.10;99.90;;;;;;5113699;27;20034;-72
2021/12/30 06:16:33;;;;;;;10.50;5.60;;;11.10;99.90;;;;;;5119856;27;20080;-72
2021/12/30 06:18:59;;;;;;;11.85;5.80;;;11.20;99.90;;;;;;5117239;27;20043;-71
2021/12/30 06:21:25;;;;;;;13.10;5.55;;;11.20;99.90;;;;;;5106395;28;20040;-72
2021/12/30 06:23:52;;;;;;;12.70;6.68;;;11.20;99.90;;;;;;5113358;28;20043;-72
2021/12/30 06:26:18;;;;;;;12.63;6.82;;;11.30;99.90;;;;;;5111608;28;20071;-72
2021/12/30 06:28:44;;;;;;;15.10;7.25;;;11.20;99.90;;;;;;5079799;28;20036;-71
2021/12/30 06:31:09;;;;;;;17.70;9.35;;;11.30;99.90;;;;;;5116180;27;20399;-72
2021/12/30 06:33:35;;;;;;;17.45;8.38;;;11.20;99.90;;;;;;5097650;28;20036;-72
2021/12/30 06:36:00;;;;;;;17.10;9.02;;;11.30;99.90;;;;;;5107065;28;20081;-72
2021/12/30 06:38:26;;;;;;;21.65;11.90;;;11.30;99.90;;;;;;5090383;28;20035;-72
2021/12/30 06:40:52;;;;;;;20.75;10.55;;;11.20;99.90;;;;;;5083361;28;20141;-71
2021/12/30 06:43:17;;;;;;;20.75;9.85;;;11.20;99.90;;;;;;5083205;28;20420;-72
2021/12/30 06:45:44;;;;;;;18.85;8.85;;;11.30;99.90;;;;;;5098803;28;20454;-72
2021/12/30 06:48:14;;;;;;;23.17;9.93;;;11.40;99.90;;;;;;5103344;28;20138;-72
2021/12/30 06:50:40;;;;;;;21.48;9.82;;;11.30;99.90;;;;;;5110417;28;20043;-72
2021/12/30 06:53:05;;;;;;;17.02;8.93;;;11.40;99.90;;;;;;5108648;28;20043;-71
2021/12/30 06:55:31;;;;;;;19.10;10.07;;;11.50;99.90;;;;;;5128854;27;20036;-71
2021/12/30 06:57:57;;;;;;;18.35;9.60;;;11.50;99.90;;;;;;5094019;28;20063;-71
2021/12/30 07:00:22;;;;;;;15.65;9.25;;;11.40;99.90;;;;;;5078142;28;20035;-71
2021/12/30 07:02:48;;;;;;;16.67;7.65;;;11.50;99.90;;;;;;5103492;28;20114;-72
2021/12/30 07:05:14;;;;;;;15.20;7.78;;;11.50;99.90;;;;;;5135067;27;20042;-72
2021/12/30 07:07:40;;;;;;;14.70;7.95;;;11.60;99.90;;;;;;5117661;27;20032;-71
2021/12/30 07:10:07;;;;;;;12.55;6.53;;;11.60;99.90;;;;;;5096228;28;20036;-72
2021/12/30 07:12:32;;;;;;;14.68;7.50;;;11.60;99.90;;;;;;5100471;28;20454;-72
2021/12/30 07:14:58;;;;;;;13.18;7.50;;;11.70;99.90;;;;;;5110239;28;20036;-72
2021/12/30 07:17:26;;;;;;;11.25;6.68;;;11.70;99.90;;;;;;5093653;28;20244;-72
2021/12/30 07:19:52;;;;;;;12.15;6.53;;;11.70;99.90;;;;;;5094365;28;20456;-72
2021/12/30 07:22:17;;;;;;;10.45;5.50;;;11.70;99.90;;;;;;5112818;28;20058;-72
2021/12/30 07:24:43;;;;;;;12.23;6.05;;;11.70;99.90;;;;;;5111406;28;20470;-72
2021/12/30 07:27:08;;;;;;;10.25;5.20;;;11.70;99.90;;;;;;5135858;27;20412;-72
2021/12/30 07:29:34;;;;;;;12.75;5.68;;;11.70;99.90;;;;;;5091568;28;20094;-72
2021/12/30 07:32:00;;;;;;;10.52;4.78;;;11.80;99.90;;;;;;5104911;28;20039;-72
2021/12/30 07:34:25;;;;;;;8.10;4.10;;;11.80;99.90;;;;;;5127943;27;20040;-72
2021/12/30 07:36:51;;;;;;;10.20;5.10;;;11.90;99.90;;;;;;5144425;27;20380;-72
2021/12/30 07:39:16;;;;;;;8.50;3.67;;;11.90;99.90;;;;;;5093500;28;20027;-72
2021/12/30 07:41:42;;;;;;;8.20;4.03;;;11.90;99.90;;;;;;5125908;28;20089;-73
2021/12/30 07:44:09;;;;;;;7.18;3.60;;;11.90;99.90;;;;;;5138202;27;20048;-73
2021/12/30 07:46:34;;;;;;;8.30;3.85;;;11.90;99.90;;;;;;5093512;28;20487;-73
2021/12/30 07:49:00;;;;;;;8.15;4.20;;;12.00;99.90;;;;;;5081453;28;20131;-73
2021/12/30 07:51:28;;;;;;;8.73;4.10;;;11.90;99.90;;;;;;5099288;28;20502;-73
2021/12/30 07:53:54;;;;;;;6.10;2.58;;;11.90;99.90;;;;;;5097441;28;20058;-72
2021/12/30 07:56:20;;;;;;;5.57;2.25;;;12.00;99.90;;;;;;5145877;27;20115;-72
2021/12/30 07:58:45;;;;;;;7.72;2.95;;;12.10;99.90;;;;;;5140948;27;20407;-73
2021/12/30 08:01:11;;;;;;;7.13;2.42;;;12.00;99.90;;;;;;5092746;28;20042;-72
2021/12/30 08:03:36;;;;;;;5.60;2.45;;;12.00;99.90;;;;;;5094305;28;20046;-72
2021/12/30 08:06:02;;;;;;;4.00;1.92;;;12.00;99.90;;;;;;5083723;28;20031;-72
2021/12/30 08:08:28;;;;;;;3.80;1.95;;;12.10;99.90;;;;;;5114427;28;20035;-73
2021/12/30 08:10:54;;;;;;;3.22;1.48;;;12.10;99.90;;;;;;5121818;27;20039;-72
2021/12/30 08:13:19;;;;;;;2.92;1.40;;;12.00;99.90;;;;;;5096151;28;20077;-72
2021/12/30 08:15:46;;;;;;;2.78;1.20;;;12.20;99.90;;;;;;5118725;27;20435;-73
2021/12/30 08:18:13;;;;;;;1.92;1.00;;;12.20;99.90;;;;;;5077969;28;20193;-73
2021/12/30 08:20:38;;;;;;;1.23;0.85;;;12.10;99.90;;;;;;5097790;28;20032;-72
2021/12/30 08:23:04;;;;;;;1.25;0.77;;;12.10;99.90;;;;;;5098864;27;20043;-72
2021/12/30 08:25:30;;;;;;;2.75;1.10;;;12.20;99.90;;;;;;5113549;28;20039;-72
2021/12/30 08:27:56;;;;;;;2.38;0.75;;;12.10;99.90;;;;;;5114862;28;20041;-72
2021/12/30 08:30:23;;;;;;;2.30;0.80;;;12.20;99.90;;;;;;5129890;27;20042;-72
2021/12/30 08:32:49;;;;;;;1.73;0.88;;;12.10;99.90;;;;;;5105263;28;20391;-72
2021/12/30 08:35:16;;;;;;;2.35;1.10;;;12.20;99.90;;;;;;5112921;28;20126;-73
2021/12/30 08:37:42;;;;;;;1.80;0.80;;;12.10;99.90;;;;;;5085410;28;20392;-73
2021/12/30 08:40:10;;;;;;;1.98;0.73;;;12.20;99.90;;;;;;5107718;28;20044;-72
2021/12/30 08:42:37;;;;;;;2.03;0.90;;;12.20;99.90;;;;;;5096180;28;20096;-73
2021/12/30 08:45:03;;;;;;;0.85;0.75;;;12.20;99.90;;;;;;5100111;28;20047;-73
2021/12/30 08:47:31;;;;;;;2.17;1.10;;;12.20;99.90;;;;;;5078607;28;20074;-74
2021/12/30 08:49:57;;;;;;;1.80;0.95;;;12.20;99.90;;;;;;5113551;28;20044;-73
2021/12/30 08:52:25;;;;;;;2.75;1.38;;;12.30;99.90;;;;;;5126012;27;20046;-73
2021/12/30 08:54:53;;;;;;;2.15;1.20;;;12.10;99.90;;;;;;5102480;28;20038;-73
2021/12/30 08:57:20;;;;;;;4.40;1.90;;;12.10;99.90;;;;;;5113557;28;20039;-73
2021/12/30 08:59:46;;;;;;;4.00;1.80;;;12.10;99.90;;;;;;5093443;28;20028;-73
2021/12/30 09:02:12;;;;;;;5.22;2.10;;;12.20;99.90;;;;;;5110444;28;20407;-73
2021/12/30 09:04:42;;;;;;;5.72;1.70;;;12.10;99.90;;;;;;5093604;28;20035;-73
2021/12/30 09:07:08;;;;;;;6.63;2.15;;;12.20;99.90;;;;;;5099864;28;20408;-73
2021/12/30 09:09:34;;;;;;;8.57;2.90;;;12.20;99.90;;;;;;5097823;28;20039;-73
2021/12/30 09:12:00;;;;;;;7.40;2.50;;;12.20;99.90;;;;;;5148117;27;20050;-72
2021/12/30 09:14:25;;;;;;;8.30;2.65;;;12.30;99.90;;;;;;5099026;28;20043;-72
2021/12/30 09:16:52;;;;;;;9.57;2.78;;;12.40;99.90;;;;;;5110544;28;20081;-72
2021/12/30 09:19:19;;;;;;;8.43;3.25;;;12.40;99.90;;;;;;5115153;27;20036;-72
2021/12/30 09:21:45;;;;;;;8.82;3.28;;;12.30;99.90;;;;;;5112504;28;20388;-72
2021/12/30 09:24:11;;;;;;;9.95;2.70;;;12.50;99.90;;;;;;5092418;28;20058;-72
2021/12/30 09:26:38;;;;;;;9.73;2.88;;;12.40;99.90;;;;;;5114385;28;20470;-72
2021/12/30 09:29:10;;;;;;;10.85;2.90;;;12.40;99.90;;;;;;5095657;28;20039;-72
2021/12/30 09:31:40;;;;;;;9.02;3.17;;;12.40;99.90;;;;;;5095250;28;20035;-72
2021/12/30 09:34:06;;;;;;;7.32;2.20;;;12.40;99.90;;;;;;5094870;28;20042;-73
2021/12/30 09:36:32;;;;;;;7.28;2.33;;;12.40;99.90;;;;;;5114231;28;20088;-72
2021/12/30 09:38:59;;;;;;;6.03;2.00;;;12.40;99.90;;;;;;5111549;28;20024;-73
2021/12/30 09:41:25;;;;;;;4.90;1.77;;;12.40;99.90;;;;;;5096717;28;20142;-73
2021/12/30 09:43:51;;;;;;;8.10;2.30;;;12.50;99.90;;;;;;5085048;28;20131;-73
2021/12/30 09:46:17;;;;;;;8.35;2.75;;;12.50;99.90;;;;;;5110047;28;20488;-73
2021/12/30 09:48:43;;;;;;;9.40;3.38;;;12.50;99.90;;;;;;5108750;27;20472;-73
2021/12/30 09:51:09;;;;;;;8.82;2.80;;;12.50;99.90;;;;;;5116746;27;20126;-73
2021/12/30 09:53:35;;;;;;;11.82;3.83;;;12.50;99.90;;;;;;5099539;28;20122;-73
2021/12/30 09:56:00;;;;;;;10.27;3.20;;;12.50;99.90;;;;;;5095495;28;20540;-73
2021/12/30 09:58:29;;;;;;;10.98;3.10;;;12.50;99.90;;;;;;5112768;27;20068;-73
2021/12/30 10:00:55;;;;;;;9.45;3.08;;;12.60;99.90;;;;;;5147399;27;20047;-73
2021/12/30 10:03:21;;;;;;;9.63;2.83;;;12.60;99.90;;;;;;5089800;28;20094;-72
2021/12/30 10:05:47;;;;;;;9.15;2.85;;;12.60;99.90;;;;;;5095980;28;20047;-73
2021/12/30 10:08:14;;;;;;;11.82;3.70;;;12.50;99.90;;;;;;5109766;28;20043;-73
2021/12/30 10:10:43;;;;;;;8.15;2.38;;;12.50;99.90;;;;;;5092692;28;20043;-73
2021/12/30 10:13:15;;;;;;;6.70;2.40;;;12.50;99.90;;;;;;5100467;28;20082;-73
2021/12/30 10:15:43;;;;;;;13.93;3.17;;;12.60;99.90;;;;;;5146531;27;20049;-73
2021/12/30 10:18:09;;;;;;;10.80;3.03;;;12.50;99.90;;;;;;5109568;28;20118;-73
2021/12/30 10:20:39;;;;;;;7.10;2.35;;;12.50;99.90;;;;;;5091721;28;20115;-73
2021/12/30 10:23:23;;;;;;;11.07;2.45;;;12.50;99.90;;;;;;5103157;28;20415;-73
2021/12/30 10:25:52;;;;;;;12.27;2.85;;;12.60;99.90;;;;;;5111995;28;20040;-73
2021/12/30 10:28:40;;;;;;;12.75;3.85;;;12.50;99.90;;;;;;5092007;28;20032;-73
2021/12/30 10:31:11;;;;;;;12.25;3.10;;;12.50;99.90;;;;;;5089711;28;20097;-73
2021/12/30 10:34:05;;;;;;;13.73;3.75;;;12.50;99.90;;;;;;5099219;28;20064;-73
2021/12/30 10:36:35;;;;;;;9.52;2.88;;;12.50;99.90;;;;;;5125520;27;20537;-73
2021/12/30 10:39:18;;;;;;;12.15;3.28;;;12.50;99.90;;;;;;5098927;28;20039;-72
2021/12/30 10:41:44;;;;;;;12.70;3.60;;;12.50;99.90;;;;;;5076377;28;20504;-72
2021/12/30 10:44:10;;;;;;;12.75;3.33;;;12.40;99.90;;;;;;5093629;28;20048;-72
2021/12/30 10:46:36;;;;;;;13.27;3.80;;;12.40;99.90;;;;;;5116222;27;20038;-73
2021/12/30 10:49:12;;;;;;;15.23;3.70;;;12.40;99.90;;;;;;5113464;27;20041;-73
2021/12/30 10:51:47;;;;;;;15.23;3.92;;;12.40;99.90;;;;;;5100015;28;20060;-73
2021/12/30 10:54:25;;;;;;;12.85;4.38;;;12.40;99.90;;;;;;5114118;27;20031;-72
2021/12/30 10:57:01;;;;;;;17.33;3.75;;;12.40;99.90;;;;;;5094570;28;20498;-72
2021/12/30 10:59:29;;;;;;;12.15;3.50;;;12.40;99.90;;;;;;5110919;28;20067;-73
2021/12/30 11:02:16;;;;;;;13.73;3.78;;;12.40;99.90;;;;;;5106328;28;20400;-72
2021/12/30 11:04:43;;;;;;;19.45;4.20;;;12.50;99.90;;;;;;5103883;28;20052;-72
2021/12/30 11:07:11;;;;;;;20.52;4.43;;;12.40;99.90;;;;;;5108333;28;20495;-72
2021/12/30 11:09:54;;;;;;;17.80;4.63;;;12.40;99.90;;;;;;5094486;28;20118;-72
2021/12/30 11:12:33;;;;;;;14.90;4.30;;;12.40;99.90;;;;;;5090800;28;20120;-72
2021/12/30 11:15:05;;;;;;;22.25;4.60;;;12.40;99.90;;;;;;5106910;28;20070;-73
2021/12/30 11:17:36;;;;;;;18.15;4.07;;;12.40;99.90;;;;;;5129739;27;20035;-73
2021/12/30 11:20:07;;;;;;;14.70;3.28;;;12.50;99.90;;;;;;5090861;28;20036;-72
2021/12/30 11:22:35;;;;;;;17.27;3.67;;;12.60;99.90;;;;;;5074483;28;20084;-72
2021/12/30 11:25:04;;;;;;;25.95;5.20;;;12.50;99.90;;;;;;5074962;28;20085;-73
2021/12/30 11:27:31;;;;;;;19.67;4.03;;;12.50;99.90;;;;;;5101084;28;20057;-72
2021/12/30 11:29:59;;;;;;;25.70;4.85;;;12.60;99.90;;;;;;5115254;28;20092;-72
2021/12/30 11:32:28;;;;;;;20.60;4.70;;;12.50;99.90;;;;;;5115242;28;20043;-73
2021/12/30 11:34:54;;;;;;;16.30;3.60;;;12.50;99.90;;;;;;5097982;28;20046;-73
2021/12/30 11:37:20;;;;;;;22.30;5.78;;;12.50;99.90;;;;;;5095207;28;20042;-73
2021/12/30 11:39:49;;;;;;;26.40;5.53;;;12.50;99.90;;;;;;5115588;27;20040;-72
2021/12/30 11:42:29;;;;;;;29.42;5.82;;;12.40;99.90;;;;;;5108732;28;20062;-72
2021/12/30 11:45:02;;;;;;;14.32;3.50;;;12.50;99.90;;;;;;5093573;27;20483;-73
2021/12/30 11:47:36;;;;;;;24.95;5.63;;;12.50;99.90;;;;;;5136189;27;20046;-72
2021/12/30 11:50:07;;;;;;;24.27;5.10;;;12.50;99.90;;;;;;5121038;27;20044;-72
2021/12/30 11:52:53;;;;;;;14.73;3.47;;;12.40;99.90;;;;;;5144696;27;20036;-72
2021/12/30 11:55:42;;;;;;;26.75;5.38;;;12.60;99.90;;;;;;5096514;28;20044;-72
2021/12/30 11:58:36;;;;;;;20.75;4.30;;;12.50;99.90;;;;;;5111658;28;20527;-72
2021/12/30 12:01:10;;;;;;;19.45;3.80;;;12.60;99.90;;;;;;5142579;27;20046;-72
2021/12/30 12:03:42;;;;;;;22.52;4.38;;;12.60;99.90;;;;;;5096797;28;20040;-72
2021/12/30 12:06:26;;;;;;;27.00;5.23;;;12.60;99.90;;;;;;5110069;28;20047;-72
2021/12/30 12:09:16;;;;;;;32.10;5.07;;;12.50;99.90;;;;;;5129424;27;20056;-72
2021/12/30 12:11:41;;;;;;;23.38;4.50;;;12.50;99.90;;;;;;5112027;27;20508;-72
2021/12/30 12:14:12;;;;;;;16.80;3.63;;;12.40;99.90;;;;;;5097844;28;20042;-72
2021/12/30 12:17:00;;;;;;;24.75;5.10;;;12.60;99.90;;;;;;5095101;28;20036;-72
2021/12/30 12:19:38;;;;;;;26.45;4.72;;;12.60;99.90;;;;;;5103645;28;20062;-72
2021/12/30 12:22:07;;;;;;;25.17;5.90;;;12.60;99.90;;;;;;5112894;28;20040;-72
2021/12/30 12:24:36;;;;;;;20.23;4.38;;;12.60;99.90;;;;;;5114287;28;20035;-72
2021/12/30 12:27:05;;;;;;;22.25;4.88;;;12.60;99.90;;;;;;5113020;28;20043;-73
2021/12/30 12:29:43;;;;;;;19.73;4.40;;;12.60;99.90;;;;;;5096024;28;20395;-73
2021/12/30 12:32:18;;;;;;;18.58;4.60;;;12.70;99.90;;;;;;5094763;28;20059;-73
2021/12/30 12:34:50;;;;;;;19.38;4.72;;;12.60;99.90;;;;;;5095330;28;20425;-72
2021/12/30 12:37:36;;;;;;;18.02;4.53;;;12.70;99.90;;;;;;5094711;28;20054;-73
2021/12/30 12:40:11;;;;;;;21.70;4.80;;;12.60;99.90;;;;;;5093688;28;20713;-72
2021/12/30 12:42:43;;;;;;;25.38;5.57;;;12.70;99.90;;;;;;5083019;28;20051;-72
2021/12/30 12:45:31;;;;;;;25.25;5.38;;;12.60;99.90;;;;;;5081164;28;20134;-73
2021/12/30 12:48:15;;;;;;;21.15;4.80;;;12.60;99.90;;;;;;5094530;28;20036;-72
2021/12/30 12:50:43;;;;;;;14.60;3.63;;;12.80;99.90;;;;;;5077870;28;20079;-73